aviador You're here:

KDUJ Decoded Metar

DU BOIS in PA, USA
Report Time2018-04-24 17:53:00
UTC Time2018-04-24 18:31:33
Flight Rules mvfr MVFR
Wind120° at 11 kt
W.Decomp.*RWY 07: 5.5 kt HW 9.5 kt RCW
W.Rank120° ranks 8
Current wind is above 120° avg. (7.1)
Visibility8047 m
Phenomena:Mist
Clouds:Broken 017 Hf
Broken 022 Hf
Overcast 060 Hf
Expected CloudBase > 400 ft AGL from Temp-Dew spread
Ceiling1,700 ft
Temp09°C (ISA -2)
Dew Point08°C (94% RH)
AAT4.6°C
QNH1021 hPa
Density Alt1,414 ft
Elevation1,818 ft
Report Wrong Elevation
Raw Report
KDUJ 241753Z AUTO 12011KT 5SM BR BKN017 BKN022 OVC060 09/08 A3014
RMK AO2 RAE17 SLP210 P0001 60005 T00940078 10111 20083 58009
TSNO=

Extra information for KDUJ:More info

Metar Taf Metar & Taf Last 4 Metars F.Rules Stats Wind Profile Meteogram Temp Stats Airport Information Weather charts Add Link Nearby VenuesMetar ALERT Operation Metar Decoded Social comments

AIRNAV info for KDUJ